Time;durP1;ratioP1;P1;durP2;ratioP2;P2;SDS_P1;SDS_P2;PMS_P1;PMS_P2;Temp;Humidity;BMP_temperature;BMP_pressure;BME280_temperature;BME280_humidity;BME280_pressure;Samples;Min_cycle;Max_cycle;Signal;HPM_P1;HPM_P2
2022/11/11 00:01:22;;;;;;;1.50;1.23;;;;;;;6.21;100.00;101846.91;5053169;28;20036;-79
2022/11/11 00:03:47;;;;;;;0.40;0.30;;;;;;;6.17;100.00;101831.16;5052909;28;20112;-79
2022/11/11 00:06:14;;;;;;;0.80;0.80;;;;;;;6.28;100.00;101850.88;5053031;28;20028;-79
2022/11/11 00:08:40;;;;;;;1.02;1.02;;;;;;;6.31;100.00;101853.69;5054116;28;20070;-79
2022/11/11 00:11:08;;;;;;;1.20;1.17;;;;;;;6.31;100.00;101839.50;5053877;28;20029;-80
2022/11/11 00:13:34;;;;;;;1.55;0.85;;;;;;;6.28;100.00;101831.81;5052578;28;20021;-79
2022/11/11 00:16:19;;;;;;;1.98;1.88;;;;;;;6.34;100.00;101838.63;5054089;28;20447;-79
2022/11/11 00:27:11;;;;;;;1.55;1.45;;;;;;;6.34;100.00;101826.50;5053833;28;20067;-78
2022/11/11 00:29:37;;;;;;;1.45;1.45;;;;;;;6.39;100.00;101829.66;5054181;28;20029;-79
2022/11/11 00:32:21;;;;;;;8.90;3.28;;;;;;;6.41;100.00;101835.72;5054105;28;20032;-79
2022/11/11 00:37:32;;;;;;;0.70;0.70;;;;;;;6.43;100.00;101832.47;5054171;28;20051;-79
2022/11/11 00:39:58;;;;;;;1.33;1.33;;;;;;;6.43;100.00;101827.59;5053449;28;20090;-78
2022/11/11 00:42:23;;;;;;;1.60;1.55;;;;;;;6.43;100.00;101824.75;5052357;28;20024;-79
2022/11/11 00:44:49;;;;;;;1.15;1.02;;;;;;;6.29;100.00;101819.22;5053256;28;20354;-80
2022/11/11 00:52:45;;;;;;;1.02;1.00;;;;;;;6.42;100.00;101828.81;5053475;28;20044;-79
2022/11/11 00:55:11;;;;;;;1.85;1.75;;;;;;;6.35;100.00;101816.75;5053476;28;20033;-80
2022/11/11 00:57:36;;;;;;;1.35;1.20;;;;;;;6.38;100.00;101828.06;5053442;28;20079;-80
2022/11/11 01:00:02;;;;;;;1.20;1.20;;;;;;;6.38;100.00;101830.09;5053698;28;20029;-79
2022/11/11 01:02:28;;;;;;;0.52;0.52;;;;;;;6.39;100.00;101843.84;5053346;28;20040;-79
2022/11/11 01:04:53;;;;;;;1.77;1.33;;;;;;;6.38;100.00;101836.59;5053338;28;20386;-79
2022/11/11 01:07:18;;;;;;;2.05;1.95;;;;;;;6.39;100.00;101843.03;5053371;28;20053;-80
2022/11/11 01:09:44;;;;;;;0.52;0.52;;;;;;;6.37;100.00;101848.34;5053418;28;20131;-80
2022/11/11 01:12:09;;;;;;;0.30;0.30;;;;;;;6.35;100.00;101840.25;5054040;28;20119;-78
2022/11/11 01:14:35;;;;;;;0.63;0.55;;;;;;;6.30;100.00;101839.91;5057959;28;20032;-79
2022/11/11 01:17:00;;;;;;;1.20;1.10;;;;;;;6.32;100.00;101848.81;5056437;28;20025;-78
2022/11/11 01:19:25;;;;;;;5.90;2.92;;;;;;;6.32;100.00;101846.78;5057299;28;20474;-79
2022/11/11 01:21:51;;;;;;;3.75;1.55;;;;;;;6.33;100.00;101845.56;5057284;28;20040;-78
2022/11/11 01:24:16;;;;;;;1.60;1.58;;;;;;;6.29;100.00;101849.66;5057274;28;20088;-78
2022/11/11 01:26:42;;;;;;;1.98;1.88;;;;;;;6.33;100.00;101850.44;5057365;28;20037;-80
2022/11/11 01:29:07;;;;;;;2.03;1.73;;;;;;;6.32;100.00;101857.34;5057161;28;20059;-77
2022/11/11 01:31:32;;;;;;;5.88;1.60;;;;;;;6.33;100.00;101845.56;5056985;28;20028;-79
2022/11/11 01:33:58;;;;;;;8.88;5.00;;;;;;;6.33;100.00;101853.28;5057261;28;20086;-80
2022/11/11 01:36:25;;;;;;;1.42;1.05;;;;;;;6.34;100.00;101844.31;5056107;28;20025;-79
2022/11/11 01:38:54;;;;;;;0.95;0.45;;;;;;;6.35;100.00;101840.25;5056862;28;20378;-79
2022/11/11 01:41:31;;;;;;;3.78;3.50;;;;;;;6.36;100.00;101832.53;5056769;28;20098;-79
2022/11/11 01:44:02;;;;;;;1.70;1.60;;;;;;;6.36;100.00;101841.88;5056942;28;20100;-79
2022/11/11 01:46:51;;;;;;;1.05;0.55;;;;;;;6.37;100.00;101837.81;5055823;28;20078;-79
2022/11/11 01:49:47;;;;;;;0.85;0.40;;;;;;;6.36;100.00;101824.84;5056618;28;20095;-79
2022/11/11 01:52:28;;;;;;;2.33;2.13;;;;;;;6.36;100.00;101821.19;5056591;28;20029;-79
2022/11/11 01:55:07;;;;;;;2.42;2.22;;;;;;;6.37;100.00;101820.78;5056906;28;20064;-79
2022/11/11 01:57:48;;;;;;;0.45;0.45;;;;;;;6.35;100.00;101819.56;5056418;28;20390;-79
2022/11/11 02:00:15;;;;;;;;;;;;;;;6.34;100.00;101815.94;5057161;28;20075;-78
2022/11/11 02:03:13;;;;;;;0.95;0.95;;;;;;;6.34;100.00;101820.84;5056624;28;19944;-79
2022/11/11 02:05:41;;;;;;;1.85;0.95;;;;;;;6.31;100.00;101808.28;5055953;28;20040;-79
2022/11/11 02:08:33;;;;;;;0.68;0.38;;;;;;;6.30;100.00;101812.34;5056278;28;20036;-79
2022/11/11 02:11:15;;;;;;;4.63;2.00;;;;;;;6.30;100.00;101820.84;5055149;28;20048;-79
2022/11/11 02:16:25;;;;;;;2.45;2.22;;;;;;;6.21;100.00;101804.31;5056259;28;20004;-78
2022/11/11 02:18:50;;;;;;;0.43;0.43;;;;;;;6.24;100.00;101819.69;5056523;28;20111;-79
2022/11/11 02:21:24;;;;;;;2.83;1.70;;;;;;;6.23;100.00;101812.41;5056196;28;20057;-78
2022/11/11 02:24:17;;;;;;;0.80;0.40;;;;;;;6.21;100.00;101812.03;5037394;28;20025;-80
2022/11/11 02:26:43;;;;;;;0.47;0.47;;;;;;;6.17;100.00;101803.56;5053844;28;20068;-79
2022/11/11 02:29:14;;;;;;;1.25;0.50;;;;;;;6.18;100.00;101810.06;5055836;28;20568;-78
2022/11/11 02:31:39;;;;;;;0.93;0.93;;;;;;;6.01;100.00;101786.34;5055084;28;20021;-78
2022/11/11 02:34:04;;;;;;;0.55;0.55;;;;;;;6.16;100.00;101826.69;5056041;28;20470;-79
2022/11/11 02:36:30;;;;;;;0.85;0.85;;;;;;;6.13;100.00;101827.56;5056026;28;20029;-79
2022/11/11 02:38:56;;;;;;;3.75;2.03;;;;;;;6.12;100.00;101837.28;5054382;28;20029;-79
2022/11/11 02:44:05;;;;;;;0.98;0.98;;;;;;;6.04;100.00;101830.88;5055854;28;20060;-79
2022/11/11 02:46:30;;;;;;;0.98;0.98;;;;;;;6.01;100.00;101828.09;5055889;28;20427;-79
2022/11/11 02:48:56;;;;;;;0.68;0.68;;;;;;;5.95;100.00;101832.63;5054642;28;20021;-78
2022/11/11 02:51:21;;;;;;;1.75;1.55;;;;;;;5.92;100.00;101827.81;5056108;28;20155;-78
2022/11/11 02:53:46;;;;;;;1.55;1.13;;;;;;;5.90;100.00;101825.38;5061792;28;20029;-80
2022/11/11 02:57:05;;;;;;;2.35;0.95;;;;;;;5.90;100.00;101813.22;5072181;28;20051;-79
2022/11/11 02:58:57;;;;;;;0.55;0.55;;;;;;;5.87;100.00;101814.91;5078224;28;20025;-78
2022/11/11 03:01:23;;;;;;;1.20;1.20;;;;;;;5.85;100.00;101813.69;5078617;28;20016;-79
2022/11/11 03:03:48;;;;;;;0.68;0.68;;;;;;;5.88;100.00;101819.34;5077974;28;20009;-79
2022/11/11 03:06:14;;;;;;;1.70;0.98;;;;;;;5.90;100.00;101808.38;5072633;28;20078;-79
2022/11/11 03:08:39;;;;;;;1.13;1.00;;;;;;;5.93;100.00;101813.22;5075661;28;20033;-77
2022/11/11 03:11:04;;;;;;;0.50;0.50;;;;;;;5.96;100.00;101806.69;5074574;28;20013;-79
2022/11/11 03:13:30;;;;;;;1.65;1.13;;;;;;;5.93;100.00;101804.69;5068247;28;20017;-78
2022/11/11 03:15:55;;;;;;;0.55;0.55;;;;;;;6.02;100.00;101822.00;5055628;28;20032;-79
2022/11/11 03:18:21;;;;;;;0.95;0.70;;;;;;;6.05;100.00;101820.34;5054184;28;20424;-78
2022/11/11 03:21:04;;;;;;;5.38;1.30;;;;;;;6.08;100.00;101817.47;5054962;28;20017;-79
2022/11/11 03:23:30;;;;;;;6.22;1.02;;;;;;;6.13;100.00;101831.19;5054870;28;20476;-79
2022/11/11 03:25:55;;;;;;;1.48;1.13;;;;;;;6.18;100.00;101830.72;5055162;28;20025;-78
2022/11/11 03:28:21;;;;;;;2.13;1.40;;;;;;;6.24;100.00;101825.34;5055122;28;20021;-78
2022/11/11 03:30:48;;;;;;;6.53;1.23;;;;;;;6.27;100.00;101835.88;5053611;28;20059;-79
2022/11/11 03:33:15;;;;;;;3.90;2.05;;;;;;;6.31;100.00;101833.81;5053651;28;20027;-78
2022/11/11 03:35:41;;;;;;;0.52;0.40;;;;;;;6.33;100.00;101830.56;5054959;28;20029;-78
2022/11/11 03:38:15;;;;;;;0.85;0.85;;;;;;;6.35;100.00;101826.06;5054639;28;20048;-78
2022/11/11 03:40:47;;;;;;;0.15;0.15;;;;;;;6.43;100.00;101833.28;5037027;28;20073;-78
2022/11/11 03:43:14;;;;;;;7.32;1.98;;;;;;;6.44;100.00;101843.38;5053268;28;20482;-79
2022/11/11 03:45:40;;;;;;;0.88;0.75;;;;;;;6.43;100.00;101838.94;5054674;28;20108;-79
2022/11/11 03:48:07;;;;;;;3.17;2.88;;;;;;;6.48;100.00;101851.84;5054469;28;20551;-78
2022/11/11 03:50:33;;;;;;;0.47;0.47;;;;;;;6.49;100.00;101844.94;5053450;28;20039;-78
2022/11/11 03:52:59;;;;;;;0.80;0.77;;;;;;;6.50;100.00;101850.19;5054506;28;20377;-79
2022/11/11 03:55:24;;;;;;;2.20;2.03;;;;;;;6.51;100.00;101851.81;5054369;28;20035;-79
2022/11/11 03:57:50;;;;;;;1.90;1.80;;;;;;;6.50;100.00;101853.03;5054658;28;20025;-79
2022/11/11 04:00:20;;;;;;;1.83;1.20;;;;;;;6.44;100.00;101848.25;5036393;28;20029;-78
2022/11/11 04:11:04;;;;;;;5.47;1.40;;;;;;;6.46;100.00;101869.31;5053156;28;20040;-78
2022/11/11 04:16:13;;;;;;;0.90;0.52;;;;;;;6.42;100.00;101871.41;5054207;28;20048;-79
2022/11/11 04:26:54;;;;;;;0.65;0.63;;;;;;;6.34;100.00;101869.09;5054208;28;20456;-80
2022/11/11 04:29:29;;;;;;;1.65;1.55;;;;;;;6.29;100.00;101867.47;5054101;28;20112;-78
2022/11/11 04:34:47;;;;;;;0.30;0.30;;;;;;;6.18;100.00;101856.28;5053693;28;20489;-79
2022/11/11 04:37:13;;;;;;;1.13;0.98;;;;;;;6.25;100.00;101883.75;5053850;28;20527;-79
2022/11/11 04:42:23;;;;;;;1.52;1.42;;;;;;;6.25;100.00;101878.88;5053661;28;20047;-78
2022/11/11 04:47:32;;;;;;;6.75;2.97;;;;;;;6.22;100.00;101859.06;5053369;28;20051;-78
2022/11/11 04:49:58;;;;;;;0.40;0.40;;;;;;;6.25;100.00;101881.72;5053558;28;20025;-78
2022/11/11 04:52:26;;;;;;;0.85;0.85;;;;;;;6.24;100.00;101876.44;5052493;28;20028;-78
2022/11/11 04:57:44;;;;;;;1.05;0.60;;;;;;;6.20;100.00;101884.22;5052586;28;20044;-79
2022/11/11 05:00:12;;;;;;;0.43;0.43;;;;;;;6.19;100.00;101883.41;5053551;28;20029;-79
2022/11/11 05:05:22;;;;;;;3.30;1.58;;;;;;;6.18;100.00;101889.53;5053548;28;20170;-77
2022/11/11 05:10:31;;;;;;;5.72;1.88;;;;;;;6.14;100.00;101864.00;5052895;28;20179;-78
2022/11/11 05:21:19;;;;;;;2.67;1.88;;;;;;;6.10;100.00;101859.59;5053201;28;20115;-78
2022/11/11 05:21:21;;;;;;;1.33;1.23;;;;;;;6.07;100.00;101861.28;5053310;28;20035;-78
2022/11/11 05:26:34;;;;;;;7.75;1.02;;;;;;;6.03;100.00;101854.03;5052555;28;20048;-79
2022/11/11 05:29:00;;;;;;;0.55;0.55;;;;;;;5.98;100.00;101858.13;5053107;28;20029;-78
2022/11/11 05:31:26;;;;;;;1.63;1.48;;;;;;;5.98;100.00;101860.16;5035280;28;20028;-78
2022/11/11 05:33:52;;;;;;;0.60;0.60;;;;;;;5.99;100.00;101873.13;5053256;28;20040;-77
2022/11/11 05:36:17;;;;;;;1.77;1.45;;;;;;;5.96;100.00;101868.28;5053148;28;20033;-79
2022/11/11 05:38:42;;;;;;;0.85;0.70;;;;;;;5.96;100.00;101880.44;5053069;28;20470;-78
2022/11/11 05:41:08;;;;;;;0.90;0.90;;;;;;;5.96;100.00;101869.09;5052845;28;20048;-78
2022/11/11 05:43:34;;;;;;;1.45;1.02;;;;;;;5.96;100.00;101868.28;5052261;28;20104;-79
2022/11/11 05:45:59;;;;;;;2.25;1.35;;;;;;;5.95;100.00;101878.81;5053040;28;20467;-79
2022/11/11 05:48:24;;;;;;;1.10;1.05;;;;;;;5.90;100.00;101867.94;5053030;28;20036;-78
2022/11/11 05:50:50;;;;;;;2.30;1.80;;;;;;;5.95;100.00;101876.00;5051841;28;20033;-78
2022/11/11 05:53:15;;;;;;;1.55;0.93;;;;;;;5.96;100.00;101883.28;5053129;28;20025;-78
2022/11/11 05:55:41;;;;;;;1.42;1.33;;;;;;;5.96;100.00;101888.97;5053510;28;20037;-78
2022/11/11 05:58:06;;;;;;;0.10;0.10;;;;;;;5.85;100.00;101867.59;5052973;28;20033;-79
2022/11/11 06:00:31;;;;;;;0.98;0.60;;;;;;;5.92;100.00;101870.38;5056064;28;20032;-79
2022/11/11 06:03:04;;;;;;;1.17;0.40;;;;;;;5.92;100.00;101882.53;5056544;28;20068;-79
2022/11/11 06:05:30;;;;;;;1.15;0.50;;;;;;;5.96;100.00;101886.13;5055681;28;20029;-79
2022/11/11 06:07:55;;;;;;;0.80;0.80;;;;;;;6.00;100.00;101900.25;5038763;28;20366;-79
2022/11/11 06:10:31;;;;;;;0.95;0.95;;;;;;;6.01;100.00;101902.69;5056427;28;20512;-80
2022/11/11 06:13:01;;;;;;;3.33;1.38;;;;;;;6.03;100.00;101914.44;5055576;28;20025;-78
2022/11/11 06:15:27;;;;;;;3.13;1.60;;;;;;;6.02;100.00;101915.66;5056396;28;20029;-78
2022/11/11 06:17:52;;;;;;;0.52;0.52;;;;;;;6.03;100.00;101917.25;5056332;28;20533;-78
2022/11/11 06:20:18;;;;;;;2.30;2.10;;;;;;;6.05;100.00;101928.16;5056111;28;20036;-80
2022/11/11 06:23:04;;;;;;;0.60;0.60;;;;;;;6.07;100.00;101925.72;5055338;28;20408;-79
2022/11/11 06:28:15;;;;;;;0.73;0.73;;;;;;;6.07;100.00;101908.69;5056471;28;20067;-78
2022/11/11 06:30:41;;;;;;;2.08;1.98;;;;;;;6.14;100.00;101915.09;5055120;28;20025;-78
2022/11/11 06:33:06;;;;;;;1.33;1.05;;;;;;;6.14;100.00;101912.25;5054968;28;20051;-80
2022/11/11 06:35:34;;;;;;;1.95;1.65;;;;;;;6.22;100.00;101907.31;5056605;28;20029;-78
2022/11/11 06:38:00;;;;;;;1.23;1.13;;;;;;;6.26;100.00;101908.06;5054932;28;20037;-79
2022/11/11 06:40:25;;;;;;;0.60;0.60;;;;;;;6.32;100.00;101914.13;5054302;28;20489;-79
2022/11/11 06:42:51;;;;;;;1.73;1.63;;;;;;;6.35;100.00;101919.75;5054789;28;20036;-79
2022/11/11 06:45:17;;;;;;;1.95;1.10;;;;;;;6.37;100.00;101922.97;5055811;28;20028;-79
2022/11/11 06:47:42;;;;;;;2.00;1.50;;;;;;;6.41;100.00;101915.22;5056004;28;20087;-79
2022/11/11 06:50:08;;;;;;;1.80;1.65;;;;;;;6.48;100.00;101920.00;5037895;28;20432;-79
2022/11/11 06:52:33;;;;;;;0.77;0.77;;;;;;;6.51;100.00;101919.16;5055843;28;20024;-79
2022/11/11 06:54:59;;;;;;;1.58;1.35;;;;;;;6.53;100.00;101919.53;5055674;28;20469;-79
2022/11/11 06:57:24;;;;;;;1.20;1.08;;;;;;;6.59;100.00;101921.47;5055575;28;20100;-78
2022/11/11 06:59:50;;;;;;;3.17;0.98;;;;;;;6.63;100.00;101932.78;5055531;28;20389;-79
2022/11/11 07:02:15;;;;;;;2.25;0.65;;;;;;;6.69;100.00;101936.75;5054149;28;20032;-79
2022/11/11 07:04:40;;;;;;;2.42;2.33;;;;;;;6.73;100.00;101926.16;5054198;28;20021;-78
2022/11/11 07:07:06;;;;;;;1.65;1.20;;;;;;;6.73;100.00;101916.84;5055778;28;20032;-80
2022/11/11 07:09:31;;;;;;;0.95;0.95;;;;;;;6.79;100.00;101918.75;5056690;28;20374;-80
2022/11/11 07:11:57;;;;;;;1.88;1.52;;;;;;;6.82;100.00;101906.56;5059878;28;20025;-79
2022/11/11 07:14:22;;;;;;;5.38;3.50;;;;;;;6.82;100.00;101900.06;5079636;28;20017;-79
2022/11/11 07:16:47;;;;;;;0.68;0.68;;;;;;;6.90;100.00;101905.22;5080223;28;20073;-78
2022/11/11 07:19:13;;;;;;;0.50;0.47;;;;;;;6.95;100.00;101910.41;5080290;28;20076;-78
2022/11/11 07:21:38;;;;;;;1.02;0.75;;;;;;;7.05;100.00;101905.78;5078643;28;20040;-78
2022/11/11 07:24:04;;;;;;;2.03;1.38;;;;;;;7.13;100.00;101906.50;5078921;28;20013;-78
2022/11/11 07:26:29;;;;;;;9.23;3.67;;;;;;;7.19;100.00;101916.13;5077193;28;20032;-80
2022/11/11 07:28:54;;;;;;;0.80;0.80;;;;;;;7.27;100.00;101917.66;5060760;28;20024;-79
2022/11/11 07:31:20;;;;;;;2.55;2.33;;;;;;;7.36;100.00;101909.38;5055207;28;20354;-79
2022/11/11 07:33:45;;;;;;;3.92;0.57;;;;;;;7.42;100.00;101904.81;5053562;28;20425;-79
2022/11/11 07:36:11;;;;;;;1.02;1.02;;;;;;;7.56;100.00;101912.28;5055573;28;20104;-79
2022/11/11 07:38:36;;;;;;;1.30;1.23;;;;;;;7.61;100.00;101908.94;5055097;28;20025;-79
2022/11/11 07:41:02;;;;;;;0.75;0.70;;;;;;;7.71;100.00;101903.06;5053269;28;20072;-79
2022/11/11 07:43:27;;;;;;;4.50;0.60;;;;;;;7.85;100.00;101910.53;5053537;28;20466;-79
2022/11/11 07:45:52;;;;;;;3.63;3.33;;;;;;;7.92;100.00;101918.94;5036953;28;20029;-80
2022/11/11 07:48:18;;;;;;;1.17;1.17;;;;;;;7.98;100.00;101902.97;5054885;28;20025;-79
2022/11/11 07:50:43;;;;;;;2.92;1.83;;;;;;;8.08;100.00;101912.53;5036790;28;20024;-79
2022/11/11 07:53:08;;;;;;;3.13;1.48;;;;;;;8.16;100.00;101906.28;5054482;28;20179;-79
2022/11/11 07:55:34;;;;;;;0.98;0.52;;;;;;;8.26;100.00;101910.97;5054608;28;20158;-79
2022/11/11 07:58:01;;;;;;;2.35;2.25;;;;;;;8.34;100.00;101911.66;5054605;28;20470;-79
2022/11/11 08:00:26;;;;;;;0.95;0.95;;;;;;;8.39;100.00;101911.94;5054558;28;20437;-79
2022/11/11 08:02:52;;;;;;;0.63;0.63;;;;;;;8.47;100.00;101909.72;5054607;28;20536;-80
2022/11/11 08:05:17;;;;;;;0.85;0.85;;;;;;;8.51;100.00;101910.44;5054587;28;20028;-80
2022/11/11 08:07:43;;;;;;;2.00;0.43;;;;;;;8.56;100.00;101909.94;5054389;28;20470;-80
2022/11/11 08:10:10;;;;;;;6.28;0.68;;;;;;;8.64;100.00;101911.41;5054562;28;20025;-79
2022/11/11 08:15:19;;;;;;;0.35;0.32;;;;;;;8.77;100.00;101911.53;5054644;28;20040;-79
2022/11/11 08:17:44;;;;;;;0.68;0.68;;;;;;;8.88;100.00;101908.44;5054224;28;20021;-79
2022/11/11 08:20:10;;;;;;;1.30;0.73;;;;;;;8.91;100.00;101916.91;5054105;28;20047;-79
2022/11/11 08:22:37;;;;;;;0.55;0.55;;;;;;;8.97;100.00;101925.75;5053220;28;20052;-79
2022/11/11 08:25:03;;;;;;;1.90;1.08;;;;;;;8.99;100.00;101914.69;5054046;28;20021;-79
2022/11/11 08:27:29;;;;;;;0.60;0.60;;;;;;;8.99;100.00;101915.50;5052651;28;20112;-79
2022/11/11 08:29:54;;;;;;;0.80;0.80;;;;;;;9.01;100.00;101913.00;5054314;28;20108;-80
2022/11/11 08:32:20;;;;;;;0.40;0.40;;;;;;;9.12;100.00;101916.41;5053900;28;20084;-79
2022/11/11 08:34:45;;;;;;;0.90;0.90;;;;;;;9.18;100.00;101922.41;5053761;28;20466;-79
2022/11/11 08:37:10;;;;;;;0.85;0.85;;;;;;;9.25;100.00;101925.06;5053752;28;20100;-79
2022/11/11 08:39:36;;;;;;;3.08;2.67;;;;;;;9.34;100.00;101933.03;5053536;28;20049;-79
2022/11/11 08:42:03;;;;;;;0.20;0.20;;;;;;;9.41;100.00;101936.50;5053470;28;20052;-79
2022/11/11 08:44:29;;;;;;;0.25;0.25;;;;;;;9.48;100.00;101932.66;5053718;28;20036;-79
2022/11/11 08:46:54;;;;;;;1.55;1.10;;;;;;;9.57;100.00;101932.84;5054017;28;20025;-79
2022/11/11 08:49:19;;;;;;;2.33;2.00;;;;;;;9.67;100.00;101934.63;5053873;28;20108;-79
2022/11/11 08:51:45;;;;;;;1.40;1.33;;;;;;;9.72;100.00;101908.41;5053701;28;20381;-79
2022/11/11 08:54:10;;;;;;;1.58;1.48;;;;;;;9.89;100.00;101924.28;5054090;28;20032;-80
2022/11/11 08:56:36;;;;;;;0.15;0.15;;;;;;;9.99;100.00;101926.03;5053695;28;20513;-80
2022/11/11 08:59:01;;;;;;;2.20;1.00;;;;;;;10.10;100.00;101917.97;5053757;28;20355;-79
2022/11/11 09:01:26;;;;;;;0.25;0.25;;;;;;;10.17;100.00;101924.75;5052210;28;20119;-79
2022/11/11 09:03:52;;;;;;;0.30;0.30;;;;;;;10.21;100.00;101919.75;5053278;28;20028;-79
2022/11/11 09:06:18;;;;;;;0.95;0.95;;;;;;;10.23;100.00;101928.69;5053469;28;20086;-79
2022/11/11 09:08:44;;;;;;;0.60;0.30;;;;;;;10.29;100.00;101936.22;5053471;28;20103;-79
2022/11/11 09:11:09;;;;;;;1.23;0.40;;;;;;;10.33;100.00;101939.81;5052047;28;20106;-79
2022/11/11 09:13:35;;;;;;;1.40;1.00;;;;;;;10.37;100.00;101937.66;5053594;28;20040;-80
2022/11/11 09:16:00;;;;;;;1.63;0.68;;;;;;;10.41;100.00;101941.19;5053733;28;20029;-79
2022/11/11 09:18:26;;;;;;;1.20;0.80;;;;;;;10.48;100.00;101937.34;5053438;28;20458;-79
2022/11/11 09:20:52;;;;;;;0.10;0.10;;;;;;;10.57;100.00;101939.53;5053267;28;20394;-79
2022/11/11 09:23:17;;;;;;;0.20;0.17;;;;;;;10.62;100.00;101933.25;5053688;28;20024;-79
2022/11/11 09:25:43;;;;;;;1.42;0.93;;;;;;;10.68;100.00;101940.03;5053126;28;20470;-79
2022/11/11 09:28:08;;;;;;;1.67;1.58;;;;;;;10.79;100.00;101940.50;5053188;28;20071;-79
2022/11/11 09:30:33;;;;;;;2.30;0.65;;;;;;;10.89;100.00;101945.88;5052023;28;20025;-80
2022/11/11 09:33:03;;;;;;;2.58;1.25;;;;;;;10.96;100.00;101948.53;5054119;28;20504;-79
2022/11/11 09:35:29;;;;;;;1.15;0.52;;;;;;;11.08;100.00;101951.84;5056319;28;20021;-79
2022/11/11 09:37:56;;;;;;;2.22;1.70;;;;;;;11.23;100.00;101944.47;5057359;28;20374;-79
2022/11/11 09:40:24;;;;;;;0.10;0.10;;;;;;;11.33;100.00;101944.13;5055441;28;20076;-79
2022/11/11 09:43:16;;;;;;;0.77;0.73;;;;;;;11.41;100.00;101941.84;5057368;28;20097;-79
2022/11/11 09:45:54;;;;;;;0.63;0.53;;;;;;;11.53;100.00;101945.94;5056131;28;20045;-79
2022/11/11 09:48:33;;;;;;;0.55;0.55;;;;;;;11.61;100.00;101936.69;5056952;28;20064;-80
2022/11/11 09:51:00;;;;;;;1.60;1.45;;;;;;;11.75;100.00;101941.09;5055570;28;20029;-79
2022/11/11 09:53:36;;;;;;;0.80;0.60;;;;;;;11.86;100.00;101937.88;5057037;28;20047;-79
2022/11/11 09:56:12;;;;;;;0.85;0.85;;;;;;;11.94;100.00;101936.34;5055683;28;20028;-79
2022/11/11 09:58:45;;;;;;;0.17;0.17;;;;;;;12.01;100.00;101941.84;5055675;28;20116;-79
2022/11/11 10:01:23;;;;;;;0.85;0.85;;;;;;;12.13;100.00;101929.53;5055244;28;20056;-80
2022/11/11 10:04:30;;;;;;;0.45;0.20;;;;;;;12.16;100.00;101923.66;5056294;28;20028;-80
2022/11/11 10:07:08;;;;;;;0.00;0.00;;;;;;;12.25;100.00;101920.91;5055804;28;20373;-79
2022/11/11 10:09:40;;;;;;;2.42;2.22;;;;;;;12.33;100.00;101912.03;5055569;28;20037;-79
2022/11/11 10:12:14;;;;;;;0.20;0.20;;;;;;;12.42;100.00;101914.97;5039009;28;20029;-79
2022/11/11 10:14:48;;;;;;;0.65;0.40;;;;;;;12.47;100.00;101917.25;5055465;28;20032;-80
2022/11/11 10:17:32;;;;;;;1.17;0.63;;;;;;;12.52;100.00;101928.94;5057082;28;20036;-79
2022/11/11 10:20:19;;;;;;;1.45;0.75;;;;;;;12.62;100.00;101919.13;5055176;28;20029;-79
2022/11/11 10:22:45;;;;;;;3.97;2.03;;;;;;;12.71;100.00;101912.63;5056436;28;20040;-79
2022/11/11 10:25:11;;;;;;;1.95;0.35;;;;;;;12.83;100.00;101916.69;5055429;28;20029;-80
2022/11/11 10:27:39;;;;;;;0.28;0.28;;;;;;;12.94;100.00;101919.97;5056515;28;20440;-79
2022/11/11 10:30:20;;;;;;;0.00;0.00;;;;;;;12.93;100.00;101910.53;5055574;28;20108;-79
2022/11/11 10:33:33;;;;;;;0.68;0.68;;;;;;;13.00;100.00;101906.56;5056696;28;20052;-79
2022/11/11 10:36:01;;;;;;;3.85;0.85;;;;;;;13.13;100.00;101910.97;5055584;28;20037;-79
2022/11/11 10:38:43;;;;;;;5.60;3.33;;;;;;;13.21;100.00;101905.72;5054976;28;20106;-79
2022/11/11 10:41:22;;;;;;;1.23;0.93;;;;;;;13.17;100.00;101915.75;5055467;28;20080;-79
2022/11/11 10:43:48;;;;;;;0.43;0.43;;;;;;;13.12;100.00;101917.97;5038717;28;20035;-80
2022/11/11 10:46:29;;;;;;;3.25;0.85;;;;;;;13.16;100.00;101906.34;5055167;28;20389;-79
2022/11/11 10:48:57;;;;;;;0.38;0.35;;;;;;;13.29;100.00;101909.91;5055810;28;20116;-79
2022/11/11 10:51:25;;;;;;;0.32;0.30;;;;;;;13.31;100.00;101904.47;5054577;28;20033;-79
2022/11/11 10:54:05;;;;;;;0.73;0.73;;;;;;;13.28;100.00;101911.19;5054973;28;20020;-80
2022/11/11 10:56:46;;;;;;;0.80;0.77;;;;;;;13.26;100.00;101907.16;5056015;28;20441;-79
2022/11/11 10:59:24;;;;;;;0.98;0.40;;;;;;;13.28;100.00;101902.56;5054611;28;20475;-80
2022/11/11 11:02:04;;;;;;;0.35;0.35;;;;;;;13.22;100.00;101898.72;5037314;28;20047;-80
2022/11/11 11:04:36;;;;;;;1.10;0.40;;;;;;;13.21;100.00;101902.84;5055751;28;20029;-79
2022/11/11 11:07:04;;;;;;;0.90;0.90;;;;;;;13.20;100.00;101906.19;5054449;28;20036;-79
2022/11/11 11:09:44;;;;;;;0.30;0.30;;;;;;;13.17;100.00;101892.78;5054115;28;20493;-79
2022/11/11 11:12:14;;;;;;;0.05;0.05;;;;;;;13.25;100.00;101903.50;5055689;28;20480;-79
2022/11/11 11:14:43;;;;;;;0.85;0.85;;;;;;;13.28;100.00;101881.66;5037618;28;20035;-80
2022/11/11 11:17:14;;;;;;;0.35;0.35;;;;;;;13.40;100.00;101895.91;5054374;28;20025;-79
2022/11/11 11:19:40;;;;;;;0.77;0.63;;;;;;;13.47;100.00;101894.81;5037232;28;20035;-79
2022/11/11 11:22:06;;;;;;;1.08;1.08;;;;;;;13.51;100.00;101890.53;5055220;28;20385;-79
2022/11/11 11:24:33;;;;;;;1.50;0.90;;;;;;;13.64;100.00;101895.38;5055047;28;20029;-78
2022/11/11 11:27:00;;;;;;;0.30;0.30;;;;;;;13.69;100.00;101906.25;5055779;28;20120;-78
2022/11/11 11:29:34;;;;;;;1.60;0.20;;;;;;;13.74;100.00;101909.25;5037709;28;20482;-78
2022/11/11 11:32:20;;;;;;;0.10;0.10;;;;;;;13.75;100.00;101884.19;5070887;28;20032;-79
2022/11/11 11:34:50;;;;;;;0.85;0.82;;;;;;;13.77;100.00;101896.03;5075228;28;20029;-78
2022/11/11 11:37:17;;;;;;;0.30;0.30;;;;;;;13.79;100.00;101888.50;5078894;28;20096;-79
2022/11/11 11:39:43;;;;;;;0.60;0.60;;;;;;;13.84;100.00;101893.63;5076110;28;20140;-79
2022/11/11 11:42:28;;;;;;;0.28;0.22;;;;;;;13.88;100.00;101890.63;5073861;28;20021;-77
2022/11/11 11:44:54;;;;;;;1.02;1.00;;;;;;;13.87;100.00;101884.06;5073574;28;20028;-77
2022/11/11 11:47:41;;;;;;;1.80;1.65;;;;;;;13.94;100.00;101891.56;5065560;28;20032;-79
2022/11/11 11:50:30;;;;;;;0.10;0.10;;;;;;;13.92;100.00;101885.50;5054974;28;20024;-79
2022/11/11 11:53:05;;;;;;;3.40;1.38;;;;;;;13.86;100.00;101893.97;5053661;28;20103;-79
2022/11/11 11:55:37;;;;;;;1.90;0.40;;;;;;;13.83;100.00;101886.31;5054599;28;20032;-78
2022/11/11 11:58:19;;;;;;;0.20;0.20;;;;;;;13.79;100.00;101882.75;5052463;28;20032;-79
2022/11/11 12:01:00;;;;;;;0.10;0.08;;;;;;;13.78;100.00;101871.75;5054492;28;20036;-79
2022/11/11 12:03:41;;;;;;;2.53;2.38;;;;;;;13.75;100.00;101882.13;5053109;28;20389;-79
2022/11/11 12:06:25;;;;;;;0.95;0.50;;;;;;;13.72;100.00;101882.28;5052907;28;20032;-79
2022/11/11 12:09:07;;;;;;;1.52;0.90;;;;;;;13.71;100.00;101880.69;5054472;28;20031;-80
2022/11/11 12:11:36;;;;;;;0.73;0.70;;;;;;;13.69;100.00;101881.16;5054484;28;20013;-79
2022/11/11 12:14:11;;;;;;;2.40;0.60;;;;;;;13.68;100.00;101867.28;5054470;28;20032;-80
2022/11/11 12:17:09;;;;;;;0.30;0.30;;;;;;;13.71;100.00;101872.06;5054097;28;20037;-79
2022/11/11 12:20:06;;;;;;;0.95;0.95;;;;;;;13.72;100.00;101868.72;5054490;28;20059;-80
2022/11/11 12:22:34;;;;;;;2.25;0.32;;;;;;;13.76;100.00;101871.44;5052916;28;20032;-79
2022/11/11 12:25:06;;;;;;;0.10;0.10;;;;;;;13.76;100.00;101871.44;5054084;28;20025;-79
2022/11/11 12:27:37;;;;;;;;;;;;;;;13.76;100.00;101872.22;5054406;28;20543;-79
2022/11/11 12:30:09;;;;;;;0.70;0.70;;;;;;;13.81;100.00;101873.69;5054575;28;19915;-79
2022/11/11 12:32:47;;;;;;;0.10;0.10;;;;;;;13.85;100.00;101868.56;5052714;28;20103;-79
2022/11/11 12:35:33;;;;;;;1.65;1.00;;;;;;;13.83;100.00;101853.91;5053712;28;20377;-79
2022/11/11 12:38:13;;;;;;;0.77;0.77;;;;;;;13.92;100.00;101862.50;5035963;28;20040;-78
2022/11/11 12:40:48;;;;;;;0.30;0.20;;;;;;;13.92;100.00;101854.69;5052443;28;20044;-79
2022/11/11 12:43:35;;;;;;;0.50;0.47;;;;;;;13.97;100.00;101851.19;5052420;28;20056;-78
2022/11/11 12:46:40;;;;;;;1.52;1.35;;;;;;;13.94;100.00;101849.25;5053768;28;20082;-79
2022/11/11 12:49:40;;;;;;;3.42;1.20;;;;;;;13.90;100.00;101850.69;5052854;28;20041;-79